»·PEaware :: UAL1399 KGEG-KSEA

UAL1399 :: KGEG-KSEA

FLIGHT INFORMATION

Flight Status: Arrived
Operator:
United Airlines
More flights by this operator :: More flights under this callsign
Pilot: David C. (16084)
Aircraft: EMBRAER EMB-170/175
(E170)
More flights by this aircraft type
Origin: KGEG Spokane Intl
United States
Destination: KSEA Seattle-Tacoma Intl
United States
More flights between these airports :: More routes between these airports
Route: +GEG3 TEMPL GLASR1
File this flight plan on PilotEdge
Remarks:
Altitude:
(Current/Filed)
24,000ft
Speed:
(Current/Filed)
383kts
Departed: 19-Dec-17 06:57 PM
Arrived: 19-Dec-17 07:43 PM
Distance/Time
Traveled:
193nm/0:45
Distance/Time
To Go:
Arrived

Flight Plot

Page will automatically refresh every two minutes.

Flight plan parsing failed; only flown route is shown


Map Options




Map Legend


Flown Route
Filed Route
Departure Airport
Arrival Airport
Navaid (VOR, NDB)
Fix

Horizontal Profiles

Position Reports

Time Latitude Longitude Heading Altitude Ground
Speed
19-Dec-17 18:33 47.625811 -117.534444 231 2391ft 0kts
19-Dec-17 18:34 47.625811 -117.534444 231 2391ft 0kts
19-Dec-17 18:35 47.625811 -117.534444 231 2391ft 0kts
19-Dec-17 18:36 47.625811 -117.534444 231 2391ft 0kts
19-Dec-17 18:37 47.625811 -117.534444 231 2391ft 0kts
19-Dec-17 18:38 47.625811 -117.534444 231 2391ft 0kts
19-Dec-17 18:39 47.625811 -117.534444 231 2391ft 0kts
19-Dec-17 18:40 47.625811 -117.534444 231 2391ft 0kts
19-Dec-17 18:41 47.625811 -117.534444 231 2391ft 0kts
19-Dec-17 18:42 47.625811 -117.534444 231 2391ft 0kts
19-Dec-17 18:43 47.625811 -117.534444 231 2391ft 0kts
19-Dec-17 18:44 47.625811 -117.534444 231 2391ft 0kts
19-Dec-17 18:45 47.625811 -117.534444 231 2391ft 0kts
19-Dec-17 18:46 47.625811 -117.534444 231 2391ft 0kts
19-Dec-17 18:47 47.625811 -117.534444 231 2391ft 0kts
19-Dec-17 18:48 47.625811 -117.534444 231 2391ft 0kts
19-Dec-17 18:49 47.625811 -117.534444 231 2391ft 0kts
19-Dec-17 18:50 47.625811 -117.534444 231 2391ft 0kts
19-Dec-17 18:51 47.625811 -117.534444 231 2391ft 0kts
19-Dec-17 18:52 47.625811 -117.534444 231 2391ft 0kts
19-Dec-17 18:53 47.625811 -117.534444 231 2391ft 0kts
19-Dec-17 18:54 47.625948 -117.534185 219 2391ft 1kts
19-Dec-17 18:55 47.626083 -117.534174 143 2391ft 0kts
19-Dec-17 18:56 47.626083 -117.534174 143 2391ft 0kts
19-Dec-17 18:57 47.626083 -117.534174 143 2391ft 0kts
19-Dec-17 18:58 47.625975 -117.534039 134 2391ft 8kts
19-Dec-17 18:59 47.627416 -117.528026 45 2391ft 31kts
19-Dec-17 19:00 47.632114 -117.519774 132 2391ft 10kts
19-Dec-17 19:01 47.631877 -117.519416 134 2391ft 0kts
19-Dec-17 19:02 47.631069 -117.518677 188 2391ft 14kts
19-Dec-17 19:03 47.606806 -117.556535 223 3414ft 213kts
19-Dec-17 19:04 47.565027 -117.621713 223 5950ft 218kts
19-Dec-17 19:05 47.550941 -117.706417 272 8466ft 234kts
19-Dec-17 19:06 47.561351 -117.800422 271 11147ft 233kts
19-Dec-17 19:07 47.571634 -117.896753 271 12047ft 257kts
19-Dec-17 19:08 47.584311 -118.015963 273 12025ft 304kts
19-Dec-17 19:09 47.597299 -118.139038 273 12155ft 300kts
19-Dec-17 19:10 47.608621 -118.246895 271 14629ft 247kts
19-Dec-17 19:11 47.618758 -118.345783 270 18164ft 250kts
19-Dec-17 19:12 47.629252 -118.448476 270 21216ft 258kts
19-Dec-17 19:13 47.640018 -118.554885 270 23575ft 271kts
19-Dec-17 19:14 47.652281 -118.678427 271 23656ft 360kts
19-Dec-17 19:15 47.667416 -118.830211 271 23636ft 374kts
19-Dec-17 19:16 47.682383 -118.983640 272 23636ft 379kts
19-Dec-17 19:17 47.697358 -119.138921 272 23626ft 382kts
19-Dec-17 19:18 47.712183 -119.295234 273 23614ft 382kts
19-Dec-17 19:19 47.726735 -119.450988 273 23615ft 381kts
19-Dec-17 19:20 47.739607 -119.606851 272 23613ft 381kts
19-Dec-17 19:21 47.751773 -119.761298 271 23619ft 380kts
19-Dec-17 19:22 47.763790 -119.916920 271 23635ft 379kts
19-Dec-17 19:23 47.775589 -120.072353 271 23644ft 380kts
19-Dec-17 19:24 47.787036 -120.226094 271 23645ft 379kts
19-Dec-17 19:25 47.796595 -120.356665 271 23642ft 379kts
19-Dec-17 19:26 47.807626 -120.509898 271 23638ft 380kts
19-Dec-17 19:27 47.818114 -120.659265 272 23659ft 386kts
19-Dec-17 19:28 47.828991 -120.815694 272 23224ft 389kts
19-Dec-17 19:29 47.839529 -120.970934 272 20829ft 369kts
19-Dec-17 19:30 47.849567 -121.122060 273 18752ft 365kts
19-Dec-17 19:31 47.859570 -121.275335 273 17215ft 355kts
19-Dec-17 19:32 47.868020 -121.407296 273 14763ft 302kts
19-Dec-17 19:33 47.875543 -121.527420 273 12404ft 300kts
19-Dec-17 19:34 47.882754 -121.644553 272 11991ft 285kts
19-Dec-17 19:35 47.850810 -121.746341 226 11990ft 282kts
19-Dec-17 19:36 47.794544 -121.827744 222 11983ft 283kts
19-Dec-17 19:37 47.742264 -121.913134 245 11774ft 288kts
19-Dec-17 19:38 47.740410 -122.023398 274 9767ft 263kts
19-Dec-17 19:39 47.748812 -122.123248 274 7704ft 225kts
19-Dec-17 19:40 47.753303 -122.216154 253 5667ft 227kts
19-Dec-17 19:41 47.730832 -122.294267 228 4430ft 195kts
19-Dec-17 19:42 47.684956 -122.310532 177 3985ft 155kts
19-Dec-17 19:43 47.641645 -122.309577 180 3880ft 160kts
19-Dec-17 19:44 47.598274 -122.309841 180 3081ft 154kts
19-Dec-17 19:45 47.558179 -122.310160 179 2303ft 149kts
19-Dec-17 19:46 47.518817 -122.310508 179 1532ft 135kts
19-Dec-17 19:47 47.482465 -122.310816 179 852ft 131kts
19-Dec-17 19:48 47.449571 -122.310985 180 441ft 52kts
19-Dec-17 19:49 47.444433 -122.309274 150 440ft 0kts
19-Dec-17 19:50 47.440174 -122.306214 155 440ft 22kts
19-Dec-17 19:51 47.439324 -122.298360 88 440ft 6kts
19-Dec-17 19:52 47.439326 -122.298203 89 440ft 0kts

Navigation Log

Ident Type
Flight plan parsing failed, navigation log unavailable